Flight Track Log - Related Links

Times and Time Zones

All times are in EDT time to prevent confusion due to time zone crossing. See the SWA1004 flight status page for this flight to view local times or setup timezone preferences in your user account.

Time Position Orientation Groundspeed Altitude Reporting Facility
EDT Latitude Longitude Course Direction KTS MPH feet Rate Location/Type
Sat 03:37:51 PM 29.6308 -95.2633 269° West 152 175 1,000  Level Houston Center
Sat 03:39:05 PM 29.6303 -95.3233 269° West 265 305 3,700 1,978 Climbing Houston Center
Sat 03:39:22 PM 29.6353 -95.3311 306° West 244 281 4,000 3,344 Climbing Houston Center
Sat 03:40:06 PM 29.6744 -95.3925 306° West 276 318 7,100 3,344 Climbing Houston Center
Sat 03:40:23 PM 29.6808 -95.4011 310° West 261 300 7,400 3,949 Climbing Houston Center
Sat 03:41:25 PM 29.7175 -95.4844 297° West 256 295 12,300 3,048 Climbing Houston Center
Sat 03:42:27 PM 29.6636 -95.5483 226° Southwest 284 327 13,700 2,195 Climbing Houston Center
Sat 03:43:28 PM 29.6169 -95.6361 239° Southwest 329 379 16,800 2,732 Climbing Houston Center
Sat 03:44:30 PM 29.5775 -95.7314 245° Southwest 332 382 19,300 2,371 Climbing Houston Center
Sat 03:45:32 PM 29.5594 -95.8400 259° West 350 403 21,700 2,049 Climbing Houston Center
Sat 03:46:33 PM 29.5744 -95.9508 279° West 356 410 23,500 1,805 Climbing Houston Center
Sat 03:47:35 PM 29.5636 -96.0714 264° West 374 430 25,400 1,935 Climbing Houston Center
Sat 03:48:37 PM 29.5517 -96.2133 265° West 375 432 27,500 1,610 Climbing Houston Center
Sat 03:49:38 PM 29.5403 -96.3364 264° West 387 445 28,700 1,805 Climbing Houston Center
Sat 03:50:40 PM 29.5278 -96.4600 263° West 392 451 31,200 1,756 Climbing Houston Center
Sat 03:51:41 PM 29.5522 -96.5744 284° West 382 440 32,300 1,366 Climbing Houston Center
Sat 03:52:43 PM 29.5900 -96.6869 291° West 382 440 34,000 1,500 Climbing Houston Center
Sat 03:53:45 PM 29.6247 -96.7992 290° West 378 435 35,400 976 Climbing Houston Center
Sat 03:54:46 PM 29.6325 -96.9375 274° West 368 423 36,000 293 Climbing Houston Center
Sat 03:55:48 PM 29.6714 -97.0475 292° West 373 429 36,000  Level Houston Center
Sat 03:56:50 PM 29.7083 -97.1586 291° West 375 432 36,000  Level Houston Center
Sat 03:57:51 PM 29.7472 -97.2706 292° West 377 434 36,000  Level Houston Center
Sat 03:58:53 PM 29.7856 -97.3819 292° West 376 433 36,000  Level Houston Center
Sat 03:59:54 PM 29.8236 -97.4936 291° West 375 432 36,000  Level Houston Center
Sat 04:00:56 PM 29.8697 -97.6253 292° West 371 427 36,000 49 Level Houston Center
Sat 04:01:57 PM 29.9064 -97.7336 291° West 365 420 36,100 49 Climbing Houston Center
Sat 04:02:59 PM 29.9461 -97.8497 292° West 364 419 36,100  Level Houston Center
Sat 04:04:01 PM 29.9822 -97.9581 291° West 363 418 36,100  Level Houston Center
Sat 04:05:02 PM 30.0189 -98.0658 291° West 363 418 36,100  Level Houston Center
Sat 04:06:04 PM 30.0589 -98.1831 292° West 365 420 36,100  Level Houston Center
Sat 04:07:06 PM 30.0947 -98.2911 291° West 363 418 36,100 -49 Level Houston Center
Sat 04:08:07 PM 30.1339 -98.4050 292° West 368 423 36,000  Descending Houston Center
Sat 04:09:09 PM 30.1700 -98.5158 291° West 358 412 36,100 49 Climbing Houston Center
Sat 04:10:10 PM 30.2058 -98.6242 291° West 361 415 36,100  Level Houston Center
Sat 04:11:12 PM 30.2450 -98.7406 291° West 362 417 36,100  Level Houston Center
Sat 04:12:14 PM 30.2808 -98.8478 291° West 360 414 36,100 -49 Level Houston Center
Sat 04:13:15 PM 30.3147 -98.9483 291° West 363 418 36,000 -49 Descending Houston Center
Sat 04:14:17 PM 30.3497 -99.0586 290° West 363 418 36,000  Level Houston Center
Sat 04:15:19 PM 30.3878 -99.1683 292° West 359 413 36,000  Level Houston Center
Sat 04:16:20 PM 30.4239 -99.2767 291° West 362 417 36,000  Level Houston Center
Sat 04:17:22 PM 30.4589 -99.3861 290° West 363 418 36,000  Level Houston Center
Sat 04:18:24 PM 30.5006 -99.5147 291° West 358 412 36,000  Level Houston Center
Sat 04:19:25 PM 30.5364 -99.6239 291° West 362 417 36,000  Level Houston Center
Sat 04:20:27 PM 30.5711 -99.7325 290° West 362 417 36,000  Level Houston Center
Sat 04:21:29 PM 30.6031 -99.8417 289° West 359 413 36,000  Level Houston Center
Sat 04:22:30 PM 30.6267 -99.9569 283° West 367 422 36,000  Level Houston Center
Sat 04:23:32 PM 30.6500 -100.0725 283° West 371 427 36,000  Level Houston Center
Sat 04:24:34 PM 30.6789 -100.2125 284° West 375 432 36,000  Level Houston Center
Sat 04:25:35 PM 30.7011 -100.3244 283° West 364 419 36,000  Level Houston Center
Sat 04:26:37 PM 30.7228 -100.4392 282° West 366 421 36,000  Level Houston Center
Sat 04:27:38 PM 30.7450 -100.5547 283° West 370 426 36,000  Level Houston Center
Sat 04:28:40 PM 30.7675 -100.6667 283° West 359 413 36,000  Level Houston Center
Sat 04:29:42 PM 30.7900 -100.7811 283° West 363 418 36,000  Level Houston Center
Sat 04:30:44 PM 30.8172 -100.9183 283° West 363 418 36,000  Level Houston Center
Sat 04:31:45 PM 30.8394 -101.0314 283° West 360 414 36,000  Level Houston Center
Sat 04:32:47 PM 30.8606 -101.1458 282° West 362 417 36,000  Level Houston Center
Sat 04:33:49 PM 30.8847 -101.2572 284° West 358 412 36,000  Level Houston Center
Sat 04:34:50 PM 30.9075 -101.3697 283° West 359 413 36,000  Level Houston Center
Sat 04:35:29 PM 30.9211 -101.4525 281° West 361 415 36,000  Level Albuquerque Center
Sat 04:36:31 PM 30.9425 -101.5664 282° West 361 415 36,000  Level Albuquerque Center
Sat 04:37:33 PM 30.9633 -101.6817 282° West 362 417 36,000  Level Albuquerque Center
Sat 04:38:34 PM 30.9853 -101.7950 283° West 360 414 36,000  Level Albuquerque Center
Sat 04:39:36 PM 31.0067 -101.9083 282° West 359 413 36,000  Level Albuquerque Center
Sat 04:40:37 PM 31.0283 -102.0372 281° West 367 422 36,000  Level Albuquerque Center
Sat 04:41:39 PM 31.0508 -102.1508 283° West 362 417 36,000  Level Albuquerque Center
Sat 04:42:41 PM 31.0719 -102.2644 282° West 360 414 36,000  Level Albuquerque Center
Sat 04:43:42 PM 31.0925 -102.3775 282° West 359 413 36,000  Level Albuquerque Center
Sat 04:44:44 PM 31.1131 -102.4922 282° West 360 414 36,000  Level Albuquerque Center
Sat 04:45:46 PM 31.1367 -102.6211 282° West 352 405 36,000  Level Albuquerque Center
Sat 04:46:47 PM 31.1575 -102.7361 282° West 357 411 36,000  Level Albuquerque Center
Sat 04:47:49 PM 31.1775 -102.8519 281° West 361 415 36,000  Level Albuquerque Center
Sat 04:48:51 PM 31.1978 -102.9664 282° West 360 414 36,000  Level Albuquerque Center
Sat 04:49:52 PM 31.2181 -103.0811 282° West 360 414 36,000  Level Albuquerque Center
Sat 04:50:54 PM 31.2428 -103.2203 282° West 363 418 36,000  Level Albuquerque Center
Sat 04:51:56 PM 31.2622 -103.3350 281° West 362 417 36,000  Level Albuquerque Center
Sat 04:52:58 PM 31.2814 -103.4500 281° West 361 415 36,000  Level Albuquerque Center
Sat 04:53:59 PM 31.3014 -103.5656 281° West 362 417 36,000  Level Albuquerque Center
Sat 04:55:01 PM 31.3219 -103.6803 282° West 362 417 36,000  Level Albuquerque Center
Sat 04:56:03 PM 31.3439 -103.8053 282° West 363 418 36,000  Level Albuquerque Center
Sat 04:57:04 PM 31.3625 -103.9214 281° West 364 419 36,000  Level Albuquerque Center
Sat 04:58:06 PM 31.3825 -104.0367 282° West 364 419 36,000  Level Albuquerque Center
Sat 04:59:08 PM 31.4025 -104.1525 281° West 365 420 36,000  Level Albuquerque Center
Sat 05:00:09 PM 31.4222 -104.2681 281° West 364 419 36,000  Level Albuquerque Center
Sat 05:01:11 PM 31.4456 -104.4072 281° West 365 420 36,000  Level Albuquerque Center
Sat 05:02:13 PM 31.4608 -104.5250 279° West 366 421 36,000  Level Albuquerque Center
Sat 05:03:14 PM 31.4728 -104.6417 277° West 365 420 36,000  Level Albuquerque Center
Sat 05:04:16 PM 31.4839 -104.7594 276° West 365 420 36,000 -532 Level Albuquerque Center
Sat 05:05:18 PM 31.4975 -104.8769 278° West 366 421 34,900 -2,244 Descending Albuquerque Center
Sat 05:06:19 PM 31.5100 -104.9958 277° West 368 423 31,400 -3,805 Descending Albuquerque Center
Sat 05:07:21 PM 31.5247 -105.1425 277° West 377 434 27,100 -3,435 Descending Albuquerque Center
Sat 05:08:23 PM 31.5358 -105.2650 276° West 380 437 24,300 -2,706 Descending Albuquerque Center
Sat 05:09:54 PM 31.5528 -105.4492 276° West 356 410 20,200 -2,628 Descending Albuquerque Center
Sat 05:10:24 PM 31.5586 -105.5028 277° West 351 404 19,000 -2,426 Descending Albuquerque Center
Sat 05:11:28 PM 31.5681 -105.6125 276° West 349 402 16,400 -2,727 Descending Albuquerque Center
Sat 05:12:25 PM 31.5808 -105.7342 277° West 347 399 13,500 -2,847 Descending Albuquerque Center
Sat 05:13:26 PM 31.6075 -105.8422 286° West 351 404 10,800 -1,701 Descending Albuquerque Center
Sat 05:14:32 PM 31.6575 -105.9411 301° West 318 366 9,900 -893 Descending Albuquerque Center
Sat 05:15:27 PM 31.6883 -106.0142 296° West 272 313 9,000 -1,513 Descending Albuquerque Center
Sat 05:16:27 PM 31.7206 -106.0958 295° West 270 311 7,000 -1,587 Descending Albuquerque Center
Sat 05:17:28 PM 31.7531 -106.1803 294° West 282 325 5,800 -550 Descending Albuquerque Center
Sat 05:18:38 PM 31.7828 -106.2531 296° West 228 262 5,800 -409 Level Albuquerque Center
Sat 05:19:40 PM 31.7983 -106.2981 292° West 151 174 4,900 -804 Descending Albuquerque Center
Sat 05:20:30 PM 31.8006 -106.3458 273° West 145 167 4,300 -488 Descending Albuquerque Center
Sat 05:21:43 PM 31.8042 -106.3928 275° West 149 171 3,900 -329 Descending Albuquerque Center
Sat 05:23:00 PM 31.8072 -106.3764 270° West  Level Estimated
Sat 05:30:00 PM 31.8072 -106.3764 270° West  Level Estimated
Sat 05:31:00 PM 31.8072 -106.3764 270° West  Level Estimated
Sat 05:32:00 PM 31.8072 -106.3764 270° West  Level Estimated
Sat 05:33:00 PM 31.8072 -106.3764 270° West  Level Estimated

Login

Don't have an account? Register now (free) for customized features, flight alerts, and more!